Time;durP1;ratioP1;P1;durP2;ratioP2;P2;SDS_P1;SDS_P2;PMS_P1;PMS_P2;Temp;Humidity;BMP_temperature;BMP_pressure;BME280_temperature;BME280_humidity;BME280_pressure;Samples;Min_cycle;Max_cycle;Signal;HPM_P1;HPM_P2
2023/11/02 00:12:54;;;;;;;27.30;12.30;;;;;;;9.73;92.52;99419.37;673648;1262;139513;-81
2023/11/02 00:27:57;;;;;;;27.00;13.90;;;;;;;9.79;94.06;99411.36;676614;1262;140601;-80
2023/11/02 00:43:01;;;;;;;28.20;15.20;;;;;;;9.88;95.57;99406.63;674431;1260;139665;-82
2023/11/02 00:58:09;;;;;;;26.30;13.50;;;;;;;9.76;95.18;99390.70;674179;1259;139633;-82
2023/11/02 01:13:17;;;;;;;24.50;14.50;;;;;;;9.53;96.04;99364.77;675074;1263;139674;-82
2023/11/02 01:28:23;;;;;;;51.90;24.20;;;;;;;9.19;97.76;99340.05;675685;1263;139420;-82
2023/11/02 01:43:37;;;;;;;28.80;16.40;;;;;;;9.05;98.68;99333.55;676530;1262;140402;-80
2023/11/02 01:58:59;;;;;;;24.50;14.80;;;;;;;8.95;99.48;99323.88;675692;1262;139448;-80
2023/11/02 02:14:25;;;;;;;26.90;15.40;;;;;;;8.79;99.66;99314.75;673018;1263;139360;-80
2023/11/02 02:30:09;;;;;;;24.50;14.60;;;;;;;8.48;100.00;99296.20;675081;1272;140550;-81
2023/11/02 02:45:13;;;;;;;28.80;15.50;;;;;;;8.35;100.00;99304.38;669768;1262;140424;-82
2023/11/02 03:00:19;;;;;;;29.30;15.80;;;;;;;8.17;100.00;99292.63;673843;1263;140372;-81
2023/11/02 03:15:28;;;;;;;27.40;16.10;;;;;;;8.16;100.00;99280.87;676329;1261;140200;-82
2023/11/02 03:30:35;;;;;;;36.60;17.00;;;;;;;8.09;100.00;99280.90;673371;1262;138869;-82
2023/11/02 03:46:04;;;;;;;26.30;14.50;;;;;;;8.02;100.00;99266.66;674770;1279;139271;-79
2023/11/02 04:01:33;;;;;;;30.60;17.40;;;;;;;8.14;100.00;99252.55;673706;1263;140712;-80
2023/11/02 04:16:36;;;;;;;;;;;;;;;8.19;100.00;99263.79;676210;1264;139643;-81
2023/11/02 04:31:40;;;;;;;33.70;17.00;;;;;;;8.20;100.00;99253.02;673807;1263;125590;-80
2023/11/02 04:46:44;;;;;;;35.40;19.40;;;;;;;8.25;100.00;99229.52;673813;1264;139925;-82
2023/11/02 05:01:48;;;;;;;30.00;16.80;;;;;;;8.23;100.00;99214.92;675057;1264;139884;-82
2023/11/02 05:16:51;;;;;;;34.70;18.30;;;;;;;8.20;100.00;99191.39;679707;1260;140271;-82
2023/11/02 05:31:57;;;;;;;32.90;18.80;;;;;;;8.52;100.00;99189.70;676311;1263;141105;-82
2023/11/02 05:47:03;;;;;;;38.50;22.90;;;;;;;8.53;99.98;99182.48;674362;1263;139123;-82
2023/11/02 06:02:07;;;;;;;34.70;20.50;;;;;;;8.61;100.00;99203.14;676083;1260;140495;-81
2023/11/02 06:17:10;;;;;;;54.10;29.60;;;;;;;8.64;100.00;99198.65;674277;1263;140168;-82
2023/11/02 06:32:14;;;;;;;38.40;20.70;;;;;;;8.65;100.00;99186.03;680689;1263;140683;-81
2023/11/02 06:47:18;;;;;;;44.30;24.80;;;;;;;8.90;100.00;99166.36;674508;1262;139112;-81
2023/11/02 07:02:23;;;;;;;57.80;32.30;;;;;;;9.14;100.00;99151.09;676429;1261;139991;-81
2023/11/02 07:17:26;;;;;;;126.30;51.90;;;;;;;9.76;100.00;99140.31;672077;1263;138813;-81
2023/11/02 07:45:02;;;;;;;71.40;41.20;;;;;;;12.47;98.00;99095.85;658401;1304;546029;-80
2023/11/02 08:00:06;;;;;;;28.80;16.70;;;;;;;13.11;92.74;99076.86;673778;1271;138555;-82
2023/11/02 08:15:16;;;;;;;22.10;12.70;;;;;;;12.59;91.57;99071.48;670354;1266;139402;-81
2023/11/02 08:30:19;;;;;;;84.30;38.70;;;;;;;12.54;91.77;99049.23;670725;1270;139678;-81
2023/11/02 08:45:23;;;;;;;251.00;109.00;;;;;;;13.61;89.20;99033.04;676842;1267;138352;-80
2023/11/02 09:00:26;;;;;;;26.20;13.90;;;;;;;15.16;81.43;99019.58;670902;1270;138810;-82
2023/11/02 09:15:30;;;;;;;10.30;7.40;;;;;;;16.62;76.51;98999.70;676809;1270;139082;-81
2023/11/02 09:30:34;;;;;;;21.70;12.80;;;;;;;18.26;71.84;98997.23;673450;1276;138500;-81
2023/11/02 09:45:37;;;;;;;87.80;40.10;;;;;;;19.24;69.55;98964.59;673847;1267;138618;-80
2023/11/02 10:00:41;;;;;;;43.80;17.80;;;;;;;19.27;66.94;98943.34;670464;1267;138821;-81
2023/11/02 10:15:45;;;;;;;18.60;9.30;;;;;;;19.41;64.06;98911.10;673447;1262;138917;-82
2023/11/02 10:30:57;;;;;;;66.90;22.40;;;;;;;19.34;65.11;98881.46;675404;1267;137813;-82
2023/11/02 10:46:03;;;;;;;37.70;19.90;;;;;;;19.21;64.92;98857.86;674996;1259;138902;-83
2023/11/02 11:01:09;;;;;;;36.90;19.10;;;;;;;19.01;63.90;98825.15;676930;1262;138936;-82
2023/11/02 11:16:13;;;;;;;16.60;9.70;;;;;;;18.42;65.08;98793.83;678092;1259;138664;-83
2023/11/02 11:31:52;;;;;;;30.50;18.20;;;;;;;18.65;65.29;98777.40;675549;1262;139023;-83
2023/11/02 11:46:57;;;;;;;17.80;9.30;;;;;;;18.14;65.29;98758.13;676936;1263;139237;-84
2023/11/02 12:02:33;;;;;;;21.90;11.60;;;;;;;17.72;65.36;98733.90;680053;1262;138444;-83
2023/11/02 12:17:50;;;;;;;39.00;14.10;;;;;;;17.52;64.79;98713.05;671052;1263;140097;-81
2023/11/02 12:32:54;;;;;;;47.20;16.60;;;;;;;18.01;63.81;98661.59;677807;1262;139131;-81
2023/11/02 12:48:01;;;;;;;46.70;16.40;;;;;;;17.94;63.84;98639.55;676475;1262;138196;-85
2023/11/02 13:03:11;;;;;;;27.30;10.90;;;;;;;17.65;65.81;98612.84;673711;1263;141965;-83
2023/11/02 13:18:15;;;;;;;14.70;7.40;;;;;;;17.21;67.22;98592.51;677187;1257;139169;-85
2023/11/02 13:33:18;;;;;;;17.60;8.00;;;;;;;17.17;66.74;98570.83;676204;1262;139874;-82
2023/11/02 13:48:23;;;;;;;20.30;10.70;;;;;;;17.29;66.87;98548.44;674671;1262;139326;-82
2023/11/02 14:03:27;;;;;;;19.60;9.30;;;;;;;17.06;67.54;98560.54;675972;1262;139060;-82
2023/11/02 14:18:31;;;;;;;17.80;9.20;;;;;;;16.71;68.71;98552.73;679973;1260;139539;-81
2023/11/02 14:33:35;;;;;;;46.70;19.50;;;;;;;16.53;69.56;98559.93;676757;1262;139512;-81
2023/11/02 14:48:39;;;;;;;24.10;12.80;;;;;;;16.18;70.74;98552.98;673145;1262;140389;-80
2023/11/02 15:03:43;;;;;;;30.70;15.60;;;;;;;15.75;71.46;98538.06;678472;1262;139989;-80
2023/11/02 15:18:47;;;;;;;23.90;7.70;;;;;;;15.56;72.31;98549.34;676726;1262;140719;-80
2023/11/02 15:33:51;;;;;;;19.20;8.60;;;;;;;15.24;73.45;98534.50;671411;1266;139477;-82
2023/11/02 15:48:54;;;;;;;25.70;18.00;;;;;;;14.97;74.64;98543.70;677121;1265;139468;-82
2023/11/02 16:03:58;;;;;;;39.80;16.40;;;;;;;14.75;75.91;98540.45;679956;1262;139902;-81
2023/11/02 16:19:02;;;;;;;25.50;11.70;;;;;;;14.52;77.65;98536.98;678926;1262;140218;-82
2023/11/02 16:34:05;;;;;;;104.90;38.90;;;;;;;14.32;78.62;98489.51;678421;1262;140226;-81
2023/11/02 16:49:09;;;;;;;24.60;10.90;;;;;;;14.12;79.91;98460.55;677636;1260;139600;-82
2023/11/02 17:10:01;;;;;;;29.10;14.50;;;;;;;13.93;82.63;98439.61;655470;1313;548992;-82
2023/11/02 17:25:05;;;;;;;40.10;18.00;;;;;;;13.92;83.04;98420.46;669164;1273;140040;-81
2023/11/02 17:40:29;;;;;;;30.30;15.70;;;;;;;13.87;84.29;98409.06;659753;1301;545206;-82
2023/11/02 17:55:34;;;;;;;49.50;19.40;;;;;;;13.79;84.70;98393.82;672786;1272;139988;-82
2023/11/02 18:10:38;;;;;;;31.20;16.30;;;;;;;13.57;86.66;98379.27;670325;1271;140023;-82
2023/11/02 18:25:41;;;;;;;52.50;23.10;;;;;;;13.30;88.88;98382.89;672728;1273;138957;-83
2023/11/02 18:40:45;;;;;;;41.60;20.70;;;;;;;13.21;89.23;98375.61;672451;1272;140959;-83
2023/11/02 18:55:49;;;;;;;25.40;13.50;;;;;;;13.12;89.13;98359.09;667958;1285;138858;-83
2023/11/02 19:10:58;;;;;;;22.60;10.80;;;;;;;13.19;88.72;98346.79;667455;1272;139043;-81
2023/11/02 19:26:02;;;;;;;25.50;13.60;;;;;;;13.16;88.52;98338.07;669983;1275;139026;-82
2023/11/02 19:41:05;;;;;;;28.50;16.10;;;;;;;13.17;87.28;98335.61;665649;1272;138823;-82
2023/11/02 19:56:08;;;;;;;32.70;13.90;;;;;;;13.20;87.13;98338.11;674328;1271;139869;-81
2023/11/02 20:11:12;;;;;;;24.30;12.50;;;;;;;13.07;87.37;98325.48;670651;1273;139302;-81
2023/11/02 20:26:15;;;;;;;29.50;15.40;;;;;;;13.12;86.87;98321.53;673782;1267;139185;-81
2023/11/02 20:41:19;;;;;;;21.20;9.20;;;;;;;13.23;85.68;98314.84;676645;1262;139964;-82
2023/11/02 20:56:22;;;;;;;12.40;6.90;;;;;;;13.15;85.57;98294.66;678150;1267;139407;-82
2023/11/02 21:11:26;;;;;;;9.80;5.40;;;;;;;13.11;85.71;98278.45;674570;1267;138762;-81
2023/11/02 21:26:29;;;;;;;14.60;6.80;;;;;;;13.11;85.58;98267.30;676767;1269;139062;-82
2023/11/02 21:41:33;;;;;;;25.40;10.60;;;;;;;13.06;85.75;98255.00;678479;1262;139162;-83
2023/11/02 21:56:36;;;;;;;21.70;7.70;;;;;;;13.08;85.53;98236.33;674445;1268;139950;-83
2023/11/02 22:11:39;;;;;;;15.80;7.50;;;;;;;12.99;86.29;98218.55;677850;1263;139472;-82
2023/11/02 22:26:43;;;;;;;11.80;5.90;;;;;;;13.02;86.49;98199.95;674591;1267;139293;-83
2023/11/02 22:41:47;;;;;;;23.50;9.10;;;;;;;13.15;85.83;98191.46;678473;1269;139109;-81
2023/11/02 22:56:50;;;;;;;11.00;6.20;;;;;;;13.30;85.23;98192.52;677854;1268;139697;-83
2023/11/02 23:11:53;;;;;;;12.70;7.20;;;;;;;13.65;83.62;98182.05;678646;1267;139266;-81
2023/11/02 23:26:57;;;;;;;11.70;6.10;;;;;;;13.68;83.19;98170.86;673300;1266;139304;-81
2023/11/02 23:42:00;;;;;;;11.40;6.10;;;;;;;13.64;83.66;98170.59;674701;1268;140259;-82
2023/11/02 23:57:04;;;;;;;12.50;6.70;;;;;;;13.86;82.84;98160.61;677404;1262;141296;-81
